Terminal Aerodrome Forecast
Issued by NWS

Home | Current Version | Previous Version | Graphics & Text | Print | Product List | Glossary On
Versions: 1 2 3 4 5 6 7 8 9 10 11 12 13 14 15 16 17 18 19 20
753
FTUS43 KMPX 210938 AAA
TAFRWF
TAF AMD
KRWF 210938Z 2110/2206 17009KT P6SM SCT250
      TEMPO 2110/2111 34020G35KT
     FM211500 22007KT P6SM BKN250
     FM220000 33004KT P6SM SCT250=

USA.gov is the U.S. government's official web portal to all federal, state and local government web resources and services.